createdAt,value
2019-03-17T00:00:36.531Z,8.08
2019-03-17T00:03:05.627Z,8.08
2019-03-17T00:05:34.685Z,8.04
2019-03-17T00:08:03.772Z,8.04
2019-03-17T00:10:32.849Z,8.03
2019-03-17T00:13:01.957Z,8.05
2019-03-17T00:15:30.987Z,8.04
2019-03-17T00:18:00.071Z,8.01
2019-03-17T00:20:29.137Z,8.04
2019-03-17T00:22:58.203Z,8.05
2019-03-17T00:25:27.287Z,8.02
2019-03-17T00:27:56.379Z,8.02
2019-03-17T00:30:25.426Z,8.02
2019-03-17T00:32:54.482Z,8.05
2019-03-17T00:35:23.562Z,8.04
2019-03-17T00:37:52.631Z,8.01
2019-03-17T00:40:21.721Z,8.01
2019-03-17T00:42:50.720Z,7.98
2019-03-17T00:45:19.800Z,7.99
2019-03-17T00:47:48.887Z,7.97
2019-03-17T00:50:17.979Z,7.96
2019-03-17T00:52:47.036Z,7.94
2019-03-17T00:55:16.114Z,7.91
2019-03-17T00:57:45.244Z,7.93
2019-03-17T01:00:14.826Z,7.93
2019-03-17T01:02:43.991Z,7.93
2019-03-17T01:05:13.069Z,7.92
2019-03-17T01:07:42.151Z,7.90
2019-03-17T01:10:11.304Z,7.89
2019-03-17T01:12:40.376Z,7.85
2019-03-17T01:15:09.577Z,7.86
2019-03-17T01:17:38.639Z,7.90
2019-03-17T01:20:07.876Z,7.85
2019-03-17T01:22:36.937Z,7.82
2019-03-17T01:25:06.450Z,7.81
2019-03-17T01:27:35.437Z,7.80
2019-03-17T01:30:05.068Z,7.76
2019-03-17T01:32:34.123Z,7.72
2019-03-17T01:35:09.197Z,7.72
2019-03-17T01:37:33.959Z,7.66
2019-03-17T01:40:03.034Z,7.65
2019-03-17T01:42:32.104Z,7.63
2019-03-17T01:45:01.194Z,7.61
2019-03-17T01:47:30.256Z,7.61
2019-03-17T01:49:59.360Z,7.58
2019-03-17T01:52:28.435Z,7.57
2019-03-17T01:54:57.502Z,7.52
2019-03-17T01:57:26.576Z,7.51
2019-03-17T01:59:55.653Z,7.49
2019-03-17T02:02:24.711Z,7.46
2019-03-17T02:04:53.796Z,7.43
2019-03-17T02:07:22.850Z,7.41
2019-03-17T02:09:51.941Z,7.40
2019-03-17T02:12:21.003Z,7.40
2019-03-17T02:14:50.078Z,7.41
2019-03-17T02:17:19.144Z,7.36
2019-03-17T02:19:48.227Z,7.33
2019-03-17T02:22:17.287Z,7.33
2019-03-17T02:24:46.375Z,7.31
2019-03-17T02:27:15.459Z,7.27
2019-03-17T02:29:44.531Z,7.27
2019-03-17T02:32:13.685Z,7.26
2019-03-17T02:34:42.766Z,7.24
2019-03-17T02:37:11.819Z,7.25
2019-03-17T02:39:40.911Z,7.22
2019-03-17T02:42:09.974Z,7.24
2019-03-17T02:44:39.054Z,7.24
2019-03-17T02:47:08.157Z,7.25
2019-03-17T02:49:37.169Z,7.24
2019-03-17T02:52:06.241Z,7.26
2019-03-17T02:54:35.245Z,7.28
2019-03-17T02:57:04.328Z,7.29
2019-03-17T02:59:33.404Z,7.26
2019-03-17T03:02:02.481Z,7.27
2019-03-17T03:04:31.476Z,7.23
2019-03-17T03:07:00.532Z,7.20
2019-03-17T03:09:29.543Z,7.19
2019-03-17T03:11:58.610Z,7.18
2019-03-17T03:14:27.693Z,7.20
2019-03-17T03:16:56.762Z,7.22
2019-03-17T03:19:25.783Z,7.22
2019-03-17T03:21:54.823Z,7.20
2019-03-17T03:24:23.813Z,7.19
2019-03-17T03:26:52.888Z,7.20
2019-03-17T03:29:21.961Z,7.20
2019-03-17T03:31:50.966Z,7.20
2019-03-17T03:34:19.939Z,7.22
2019-03-17T03:36:49.028Z,7.22
2019-03-17T03:39:18.092Z,7.21
2019-03-17T03:41:47.163Z,7.19
2019-03-17T03:44:16.219Z,7.16
2019-03-17T03:46:45.330Z,7.10
2019-03-17T03:49:14.393Z,7.08
2019-03-17T03:51:43.487Z,7.06
2019-03-17T03:54:12.543Z,7.06
2019-03-17T03:56:41.626Z,7.05
2019-03-17T03:59:10.703Z,7.07
2019-03-17T04:01:39.787Z,7.08
2019-03-17T04:04:08.868Z,7.09
2019-03-17T04:06:37.960Z,7.07
2019-03-17T04:09:08.126Z,7.07
2019-03-17T04:11:37.197Z,7.03
2019-03-17T04:14:06.261Z,7.01
2019-03-17T04:16:35.278Z,6.98
2019-03-17T04:19:04.335Z,6.98
2019-03-17T04:21:33.413Z,6.97
2019-03-17T04:24:02.463Z,6.98
2019-03-17T04:26:31.550Z,6.99
2019-03-17T04:29:00.614Z,7.04
2019-03-17T04:31:29.685Z,7.08
2019-03-17T04:33:58.741Z,7.13
2019-03-17T04:36:39.437Z,7.14
2019-03-17T04:38:58.679Z,7.17
2019-03-17T04:41:27.756Z,7.18
2019-03-17T04:43:56.839Z,7.19
2019-03-17T04:46:25.944Z,7.19
2019-03-17T04:48:55.097Z,7.19
2019-03-17T04:51:24.295Z,7.18
2019-03-17T04:53:53.299Z,7.18
2019-03-17T04:56:22.307Z,7.20
2019-03-17T04:58:51.388Z,7.22
2019-03-17T05:01:20.454Z,7.21
2019-03-17T05:03:49.716Z,7.20
2019-03-17T05:06:21.605Z,7.20
2019-03-17T05:08:50.588Z,7.17
2019-03-17T05:11:19.662Z,7.14
2019-03-17T05:13:48.655Z,7.08
2019-03-17T05:16:17.669Z,7.04
2019-03-17T05:18:46.659Z,6.99
2019-03-17T05:21:15.750Z,6.97
2019-03-17T05:23:44.732Z,6.94
2019-03-17T05:26:13.810Z,6.93
2019-03-17T05:28:42.798Z,6.89
2019-03-17T05:31:11.813Z,6.87
2019-03-17T05:33:40.873Z,6.87
2019-03-17T05:36:09.945Z,6.85
2019-03-17T05:38:39.013Z,6.83
2019-03-17T05:41:08.096Z,6.80
2019-03-17T05:43:37.146Z,6.80
2019-03-17T05:46:06.243Z,6.76
2019-03-17T05:48:35.295Z,6.73
2019-03-17T05:51:04.406Z,6.70
2019-03-17T05:53:33.404Z,6.69
2019-03-17T05:56:02.470Z,6.70
2019-03-17T05:58:31.544Z,6.70
2019-03-17T06:01:00.632Z,6.71
2019-03-17T06:03:29.688Z,6.70
2019-03-17T06:05:58.764Z,6.72
2019-03-17T06:08:27.742Z,6.71
2019-03-17T06:10:56.841Z,6.70
2019-03-17T06:13:25.828Z,6.74
2019-03-17T06:15:54.904Z,6.74
2019-03-17T06:18:23.971Z,6.76
2019-03-17T06:20:53.059Z,6.76
2019-03-17T06:23:22.545Z,6.80
2019-03-17T06:25:51.627Z,6.79
2019-03-17T06:28:21.717Z,6.78
2019-03-17T06:30:50.917Z,6.79
2019-03-17T06:33:20.009Z,6.81
2019-03-17T06:35:49.078Z,6.80
2019-03-17T06:38:18.155Z,6.83
2019-03-17T06:40:47.147Z,6.85
2019-03-17T06:43:16.146Z,6.87
2019-03-17T06:45:45.125Z,6.87
2019-03-17T06:48:14.295Z,6.88
2019-03-17T06:50:43.356Z,6.90
2019-03-17T06:53:12.437Z,6.91
2019-03-17T06:55:41.493Z,6.92
2019-03-17T06:58:10.584Z,6.91
2019-03-17T07:00:39.644Z,6.95
2019-03-17T07:03:08.645Z,6.98
2019-03-17T07:05:37.638Z,7.00
2019-03-17T07:08:06.727Z,7.04
2019-03-17T07:10:35.866Z,7.09
2019-03-17T07:13:04.993Z,7.17
2019-03-17T07:15:34.153Z,7.24
2019-03-17T07:18:03.229Z,7.30
2019-03-17T07:20:32.285Z,7.37
2019-03-17T07:23:01.372Z,7.41
2019-03-17T07:25:30.484Z,7.49
2019-03-17T07:27:59.593Z,7.59
2019-03-17T07:30:28.668Z,7.69
2019-03-17T07:32:57.847Z,7.73
2019-03-17T07:35:26.913Z,7.81
2019-03-17T07:37:57.189Z,7.85
2019-03-17T07:40:26.372Z,7.90
2019-03-17T07:42:55.454Z,7.93
2019-03-17T07:45:24.523Z,7.96
2019-03-17T07:47:53.633Z,7.98
2019-03-17T07:50:22.683Z,8.01
2019-03-17T07:52:51.788Z,8.03
2019-03-17T07:55:20.842Z,8.04
2019-03-17T07:57:49.974Z,8.09
2019-03-17T08:00:30.925Z,8.13
2019-03-17T08:02:49.832Z,8.29
2019-03-17T08:05:18.888Z,8.40
2019-03-17T08:07:47.962Z,8.56
2019-03-17T08:10:17.046Z,8.74
2019-03-17T08:12:46.182Z,8.83
2019-03-17T08:15:15.263Z,8.96
2019-03-17T08:17:44.350Z,9.08
2019-03-17T08:20:13.415Z,9.19
2019-03-17T08:22:42.487Z,9.27
2019-03-17T08:25:11.566Z,9.40
2019-03-17T08:27:40.662Z,9.53
2019-03-17T08:30:10.467Z,9.61
2019-03-17T08:32:41.265Z,9.72
2019-03-17T08:35:10.362Z,9.80
2019-03-17T08:37:39.534Z,9.88
2019-03-17T08:40:10.570Z,9.97
2019-03-17T08:42:39.667Z,10.00
2019-03-17T08:45:10.298Z,9.98
2019-03-17T08:47:39.412Z,9.95
2019-03-17T08:50:08.722Z,9.93
2019-03-17T08:52:37.723Z,9.96
2019-03-17T08:55:06.984Z,9.94
2019-03-17T08:57:36.066Z,9.94
2019-03-17T09:00:05.796Z,9.95
2019-03-17T09:02:34.975Z,9.93
2019-03-17T09:05:04.013Z,9.95
2019-03-17T09:07:33.147Z,9.93
2019-03-17T09:10:02.139Z,9.96
2019-03-17T09:12:31.268Z,9.94
2019-03-17T09:15:00.517Z,9.94
2019-03-17T09:17:29.582Z,9.98
2019-03-17T09:19:58.648Z,9.96
2019-03-17T09:22:27.737Z,10.00
2019-03-17T09:24:56.720Z,9.98
2019-03-17T09:27:25.820Z,10.00
2019-03-17T09:29:54.878Z,10.08
2019-03-17T09:32:23.976Z,10.08
2019-03-17T09:34:53.050Z,10.06
2019-03-17T09:37:22.147Z,10.08
2019-03-17T09:39:51.264Z,10.09
2019-03-17T09:42:20.326Z,10.06
2019-03-17T09:44:49.334Z,10.06
2019-03-17T09:47:24.413Z,10.06
2019-03-17T09:49:53.654Z,10.09
2019-03-17T09:52:22.918Z,10.04
2019-03-17T09:54:52.084Z,10.02
2019-03-17T09:57:21.208Z,10.02
2019-03-17T09:59:50.383Z,10.00
2019-03-17T10:02:20.209Z,10.03
2019-03-17T10:04:49.923Z,10.01
2019-03-17T10:07:19.026Z,10.00
2019-03-17T10:09:48.080Z,10.00
2019-03-17T10:12:17.194Z,10.01
2019-03-17T10:14:46.387Z,9.98
2019-03-17T10:17:15.544Z,10.00
2019-03-17T10:19:44.714Z,10.02
2019-03-17T10:22:13.730Z,10.02
2019-03-17T10:24:42.902Z,10.00
2019-03-17T10:27:11.985Z,10.02
2019-03-17T10:29:41.046Z,10.00
2019-03-17T10:32:10.332Z,10.02
2019-03-17T10:34:39.373Z,10.04
2019-03-17T10:37:08.449Z,10.06
2019-03-17T10:39:37.493Z,10.08
2019-03-17T10:42:06.547Z,10.09
2019-03-17T10:44:35.714Z,10.10
2019-03-17T10:47:05.146Z,10.08
2019-03-17T10:49:34.721Z,10.09
2019-03-17T10:52:04.738Z,10.13
2019-03-17T10:54:34.485Z,10.17
2019-03-17T10:57:06.607Z,10.18
2019-03-17T10:59:35.918Z,10.16
2019-03-17T11:02:05.016Z,10.16
2019-03-17T11:04:34.352Z,10.17
2019-03-17T11:07:03.944Z,10.15
2019-03-17T11:09:36.078Z,10.16
2019-03-17T11:12:05.208Z,10.19
2019-03-17T11:14:34.718Z,10.19
2019-03-17T11:17:04.080Z,10.18
2019-03-17T11:19:35.316Z,10.20
2019-03-17T11:22:04.187Z,10.18
2019-03-17T11:24:33.518Z,10.15
2019-03-17T11:27:02.604Z,10.14
2019-03-17T11:29:31.817Z,10.10
2019-03-17T11:32:00.935Z,10.06
2019-03-17T11:34:30.213Z,9.98
2019-03-17T11:36:59.988Z,9.75
2019-03-17T11:39:37.739Z,9.41
2019-03-17T11:42:00.620Z,9.02
2019-03-17T11:44:29.908Z,8.69
2019-03-17T11:47:00.564Z,8.40
2019-03-17T11:49:30.949Z,8.12
2019-03-17T11:52:00.306Z,7.93
2019-03-17T11:54:29.781Z,7.79
2019-03-17T11:56:59.219Z,7.65
2019-03-17T11:59:29.900Z,7.45
2019-03-17T12:01:59.205Z,7.28
2019-03-17T12:04:28.519Z,7.17
2019-03-17T12:06:57.705Z,7.08
2019-03-17T12:09:29.349Z,6.99
2019-03-17T12:11:57.677Z,6.98
2019-03-17T12:14:26.913Z,6.98
2019-03-17T12:16:56.084Z,6.90
2019-03-17T12:19:27.422Z,6.89
2019-03-17T12:22:08.211Z,6.92
2019-03-17T12:24:27.504Z,6.89
2019-03-17T12:26:56.644Z,6.92
2019-03-17T12:29:25.858Z,6.98
2019-03-17T12:31:54.935Z,7.03
2019-03-17T12:34:28.535Z,7.10
2019-03-17T12:36:54.976Z,7.16
2019-03-17T12:39:24.128Z,7.25
2019-03-17T12:41:53.233Z,7.34
2019-03-17T12:44:22.509Z,7.39
2019-03-17T12:46:51.739Z,7.46
2019-03-17T12:49:21.307Z,7.53
2019-03-17T12:51:50.473Z,7.57
2019-03-17T12:54:19.656Z,7.60
2019-03-17T12:56:48.826Z,7.64
2019-03-17T12:59:17.946Z,7.64
2019-03-17T13:01:47.087Z,7.65
2019-03-17T13:04:16.196Z,7.68
2019-03-17T13:06:45.429Z,7.73
2019-03-17T13:09:14.593Z,7.73
2019-03-17T13:11:43.804Z,7.75
2019-03-17T13:14:12.917Z,7.79
2019-03-17T13:16:41.988Z,7.82
2019-03-17T13:19:11.209Z,7.84
2019-03-17T13:21:40.255Z,7.89
2019-03-17T13:24:09.420Z,7.91
2019-03-17T13:26:38.549Z,7.95
2019-03-17T13:29:07.671Z,8.00
2019-03-17T13:31:36.808Z,8.00
2019-03-17T13:34:05.942Z,8.02
2019-03-17T13:36:35.151Z,8.03
2019-03-17T13:39:05.728Z,8.07
2019-03-17T13:41:35.036Z,8.08
2019-03-17T13:44:07.492Z,8.11
2019-03-17T13:46:36.771Z,8.15
2019-03-17T13:49:08.363Z,8.21
2019-03-17T13:51:37.756Z,8.20
2019-03-17T13:54:07.491Z,8.24
2019-03-17T13:56:36.940Z,8.24
2019-03-17T13:59:06.613Z,8.25
2019-03-17T14:01:35.925Z,8.27
2019-03-17T14:04:05.118Z,8.27
2019-03-17T14:06:34.378Z,8.29
2019-03-17T14:09:04.460Z,8.30
2019-03-17T14:11:33.765Z,8.31
2019-03-17T14:14:02.989Z,8.31
2019-03-17T14:16:32.153Z,8.33
2019-03-17T14:19:01.312Z,8.33
2019-03-17T14:21:30.485Z,8.34
2019-03-17T14:23:59.564Z,8.35
2019-03-17T14:26:29.000Z,8.36
2019-03-17T14:28:58.057Z,8.36
2019-03-17T14:31:27.257Z,8.33
2019-03-17T14:33:56.324Z,8.33
2019-03-17T14:36:25.439Z,8.33
2019-03-17T14:38:54.519Z,8.34
2019-03-17T14:41:23.601Z,8.35
2019-03-17T14:43:52.723Z,8.38
2019-03-17T14:46:22.031Z,8.37
2019-03-17T14:48:53.201Z,8.37
2019-03-17T14:51:22.723Z,8.37
2019-03-17T14:53:51.973Z,8.38
2019-03-17T14:56:21.239Z,8.40
2019-03-17T14:58:50.358Z,8.38
2019-03-17T15:01:19.443Z,8.38
2019-03-17T15:03:48.508Z,8.33
2019-03-17T15:06:17.668Z,8.31
2019-03-17T15:08:47.125Z,8.16
2019-03-17T15:11:16.332Z,8.11
2019-03-17T15:13:45.524Z,7.99
2019-03-17T15:16:14.640Z,7.91
2019-03-17T15:18:43.697Z,7.81
2019-03-17T15:21:12.819Z,7.74
2019-03-17T15:23:42.919Z,7.61
2019-03-17T15:26:12.020Z,7.53
2019-03-17T15:28:40.997Z,7.42
2019-03-17T15:31:12.319Z,7.36
2019-03-17T15:33:40.885Z,7.34
2019-03-17T15:36:09.963Z,7.32
2019-03-17T15:38:38.945Z,7.27
2019-03-17T15:41:18.140Z,7.21
2019-03-17T15:43:38.810Z,7.20
2019-03-17T15:46:07.918Z,7.17
2019-03-17T15:48:36.969Z,7.18
2019-03-17T15:51:19.182Z,7.17
2019-03-17T15:53:37.977Z,7.16
2019-03-17T15:56:07.051Z,7.15
2019-03-17T15:58:36.020Z,7.18
2019-03-17T16:01:05.091Z,7.24
2019-03-17T16:03:34.141Z,7.27
2019-03-17T16:06:06.256Z,7.28
2019-03-17T16:08:35.302Z,7.31
2019-03-17T16:11:04.381Z,7.34
2019-03-17T16:13:33.439Z,7.37
2019-03-17T16:16:02.434Z,7.42
2019-03-17T16:18:31.501Z,7.46
2019-03-17T16:21:00.579Z,7.54
2019-03-17T16:23:29.626Z,7.61
2019-03-17T16:25:58.695Z,7.71
2019-03-17T16:28:29.514Z,7.74
2019-03-17T16:30:58.606Z,7.71
2019-03-17T16:33:27.676Z,7.73
2019-03-17T16:35:56.755Z,7.68
2019-03-17T16:38:25.814Z,7.67
2019-03-17T16:40:54.903Z,7.60
2019-03-17T16:43:23.946Z,7.55
2019-03-17T16:45:53.157Z,7.57
2019-03-17T16:48:22.242Z,7.47
2019-03-17T16:50:51.306Z,7.43
2019-03-17T16:53:20.289Z,7.34
2019-03-17T16:55:49.369Z,7.30
2019-03-17T16:58:18.350Z,7.28
2019-03-17T17:00:47.441Z,7.23
2019-03-17T17:03:16.503Z,7.18
2019-03-17T17:05:48.151Z,7.14
2019-03-17T17:08:17.209Z,7.03
2019-03-17T17:10:50.600Z,6.93
2019-03-17T17:13:17.513Z,6.85
2019-03-17T17:15:46.609Z,6.66
2019-03-17T17:18:15.690Z,6.49
2019-03-17T17:20:44.752Z,6.30
2019-03-17T17:23:13.744Z,6.10
2019-03-17T17:25:42.725Z,5.93
2019-03-17T17:28:11.909Z,5.80
2019-03-17T17:30:40.957Z,5.75
2019-03-17T17:33:10.029Z,5.70
2019-03-17T17:35:39.138Z,5.68
2019-03-17T17:38:08.218Z,5.64
2019-03-17T17:40:37.191Z,5.57
2019-03-17T17:43:06.200Z,5.52
2019-03-17T17:45:35.244Z,5.47
2019-03-17T17:48:04.347Z,5.41
2019-03-17T17:50:33.431Z,5.37
2019-03-17T17:53:02.429Z,5.28
2019-03-17T17:55:31.478Z,5.23
2019-03-17T17:58:00.571Z,5.12
2019-03-17T18:00:31.634Z,5.02
2019-03-17T18:03:00.702Z,4.94
2019-03-17T18:05:30.128Z,4.81
2019-03-17T18:07:59.205Z,4.77
2019-03-17T18:10:28.352Z,4.69
2019-03-17T18:12:57.477Z,4.60
2019-03-17T18:15:26.551Z,4.58
2019-03-17T18:17:55.674Z,4.53
2019-03-17T18:20:24.710Z,4.46
2019-03-17T18:22:53.779Z,4.42
2019-03-17T18:25:22.930Z,4.38
2019-03-17T18:27:52.003Z,4.35
2019-03-17T18:30:21.052Z,4.33
2019-03-17T18:32:50.135Z,4.31
2019-03-17T18:35:19.223Z,4.26
2019-03-17T18:37:50.941Z,4.19
2019-03-17T18:40:19.061Z,4.07
2019-03-17T18:42:48.153Z,4.04
2019-03-17T18:45:18.309Z,3.98
2019-03-17T18:47:47.417Z,3.92
2019-03-17T18:50:20.566Z,3.87
2019-03-17T18:52:47.312Z,3.85
2019-03-17T18:55:16.362Z,3.82
2019-03-17T18:57:45.525Z,3.75
2019-03-17T19:00:16.069Z,3.74
2019-03-17T19:02:45.205Z,3.74
2019-03-17T19:05:14.317Z,3.68
2019-03-17T19:07:43.385Z,3.66
2019-03-17T19:10:12.624Z,3.66
2019-03-17T19:12:45.855Z,3.65
2019-03-17T19:15:13.612Z,3.63
2019-03-17T19:17:42.777Z,3.62
2019-03-17T19:20:13.327Z,3.61
2019-03-17T19:22:42.421Z,3.59
2019-03-17T19:25:12.447Z,3.58
2019-03-17T19:27:41.533Z,3.53
2019-03-17T19:30:12.480Z,3.52
2019-03-17T19:32:41.578Z,3.49
2019-03-17T19:35:10.627Z,3.45
2019-03-17T19:37:39.713Z,3.44
2019-03-17T19:40:09.889Z,3.40
2019-03-17T19:42:38.887Z,3.39
2019-03-17T19:45:08.182Z,3.36
2019-03-17T19:47:37.274Z,3.35
2019-03-17T19:50:06.674Z,3.35
2019-03-17T19:52:35.750Z,3.32
2019-03-17T19:55:05.176Z,3.32
2019-03-17T19:57:34.254Z,3.31
2019-03-17T20:00:03.319Z,3.27
2019-03-17T20:02:32.406Z,3.27
2019-03-17T20:05:01.305Z,3.23
2019-03-17T20:07:30.380Z,3.21
2019-03-17T20:09:59.356Z,3.17
2019-03-17T20:12:28.412Z,3.16
2019-03-17T20:14:57.337Z,3.13
2019-03-17T20:17:26.390Z,3.13
2019-03-17T20:19:55.492Z,3.13
2019-03-17T20:22:24.459Z,3.11
2019-03-17T20:24:53.449Z,3.08
2019-03-17T20:27:24.091Z,3.08
2019-03-17T20:29:53.175Z,3.07
2019-03-17T20:32:22.156Z,3.06
2019-03-17T20:34:51.073Z,3.04
2019-03-17T20:37:20.052Z,3.03
2019-03-17T20:39:49.133Z,3.01
2019-03-17T20:42:18.190Z,3.00
2019-03-17T20:44:47.302Z,2.97
2019-03-17T20:47:16.389Z,2.95
2019-03-17T20:49:45.383Z,2.96
2019-03-17T20:52:14.364Z,2.97
2019-03-17T20:54:43.361Z,2.96
2019-03-17T20:57:12.411Z,2.99
2019-03-17T20:59:41.483Z,2.98
2019-03-17T21:02:10.526Z,3.00
2019-03-17T21:04:39.521Z,2.98
2019-03-17T21:07:08.584Z,2.98
2019-03-17T21:09:37.510Z,2.99
2019-03-17T21:12:06.562Z,2.98
2019-03-17T21:14:35.720Z,2.98
2019-03-17T21:17:04.766Z,2.98
2019-03-17T21:19:33.764Z,2.97
2019-03-17T21:22:02.816Z,2.96
2019-03-17T21:24:31.898Z,2.97
2019-03-17T21:27:00.952Z,2.98
2019-03-17T21:29:30.035Z,2.97
2019-03-17T21:31:59.018Z,2.96
2019-03-17T21:34:28.019Z,2.96
2019-03-17T21:36:57.066Z,2.98
2019-03-17T21:39:26.150Z,2.95
2019-03-17T21:41:55.146Z,2.94
2019-03-17T21:44:24.144Z,2.95
2019-03-17T21:46:53.227Z,2.93
2019-03-17T21:49:22.306Z,2.87
2019-03-17T21:51:51.366Z,2.88
2019-03-17T21:54:20.460Z,2.86
2019-03-17T21:56:49.514Z,2.81
2019-03-17T21:59:18.581Z,2.82
2019-03-17T22:01:47.565Z,2.79
2019-03-17T22:04:16.569Z,2.77
2019-03-17T22:06:45.650Z,2.78
2019-03-17T22:09:17.165Z,2.76
2019-03-17T22:11:45.405Z,2.79
2019-03-17T22:14:14.479Z,2.84
2019-03-17T22:16:43.455Z,2.83
2019-03-17T22:19:12.460Z,2.84
2019-03-17T22:21:41.506Z,2.83
2019-03-17T22:24:10.661Z,2.80
2019-03-17T22:26:39.711Z,2.80
2019-03-17T22:29:08.791Z,2.78
2019-03-17T22:31:37.913Z,2.81
2019-03-17T22:34:08.352Z,2.82
2019-03-17T22:36:37.450Z,2.86
2019-03-17T22:39:07.542Z,2.83
2019-03-17T22:41:36.516Z,2.84
2019-03-17T22:44:05.613Z,2.84
2019-03-17T22:46:34.693Z,2.85
2019-03-17T22:49:03.769Z,2.85
2019-03-17T22:51:32.830Z,2.87
2019-03-17T22:54:01.907Z,2.88
2019-03-17T22:56:31.000Z,2.89
2019-03-17T22:58:59.886Z,2.89
2019-03-17T23:01:29.021Z,2.88
2019-03-17T23:03:58.101Z,2.90
2019-03-17T23:06:27.175Z,2.86
2019-03-17T23:08:56.249Z,2.85
2019-03-17T23:11:25.298Z,2.83
2019-03-17T23:13:54.242Z,2.80
2019-03-17T23:16:23.302Z,2.76
2019-03-17T23:18:52.291Z,2.75
2019-03-17T23:21:21.375Z,2.74
2019-03-17T23:23:50.365Z,2.71
2019-03-17T23:26:19.363Z,2.69
2019-03-17T23:28:48.274Z,2.67
2019-03-17T23:31:17.203Z,2.65
2019-03-17T23:33:46.258Z,2.64
2019-03-17T23:36:15.335Z,2.64
2019-03-17T23:38:44.404Z,2.63
2019-03-17T23:41:13.477Z,2.59
2019-03-17T23:43:42.530Z,2.58
2019-03-17T23:46:11.614Z,2.57
2019-03-17T23:48:40.547Z,2.53
2019-03-17T23:51:09.643Z,2.52
2019-03-17T23:53:38.701Z,2.51
2019-03-17T23:56:07.777Z,2.49
2019-03-17T23:58:36.861Z,2.47
